Aérodrome :
LOGIN :

S'inscrire | Disclaimer

   EN    FR    IT 

 










Légende :    VFR   VFR Marginal   IFR   IFR Intensif   IFR Très Intensif
Visi : 
Plafond : 
>= 8 km
>= 3000ft
5 à 8 km
1000 à 3000 ft
1500m à 5 km
500 à 1000 ft
800 à 1500m
200 à 500 ft
< 800m
< 200 ft
Symboles :   Orages  Brouillard  Fortes neiges  Fortes précipitations  Vent > 20 kt
SIGMETs :   Divers  Orages  Givrage  Turbulence  Onde Orograph.  Cendres Volcan.







- Altitude de l'aérodrome : 1036 ft
- Code IATA : ERF


EDDE - Erfurt

DERNIER METAR :
  • 190320Z 24012KT CAVOK 14/12 Q1015

METARs EXPIRÉS :
  • 190250Z 26010KT CAVOK 14/12 Q1014
  • 190220Z 23006KT 190V280 CAVOK 14/12 Q1015
  • 190150Z 22006KT CAVOK 15/13 Q1014
  • 190120Z 23008KT CAVOK 15/13 Q1014
  • 190050Z 24013KT CAVOK 15/13 Q1014

TAF TAF EDDE
Valide du 19 à 00h jusqu'au 20 à 00h UTC


182300Z 1900/1924 24008KT 9999 SCT020
PROB30
TEMPO 1903/1907 BKN012
BECMG 1906/1908 25013KT
PROB30
TEMPO 1910/1916 26015G25KT
BECMG 1916/1918 25007KT
Pas de NOTAMs connus pour ce terrain.



MET'MAP, la Météo Aéronautique d'un coup d'oeil ! - Copyright ORBIFLY Décembre 2007 - Disclaimer

ORBIFLY MET'MAP TEAM :

Programmation & Développement : Alexandra Zaïnal
Conception & Développement : Baudouin d'Aumeries
Co-Programmation & Développement : Marc-Olivier Méhu
Soutien technique & logistique : Manuel Goepfert

Contact : metmap@orbifly.com




SOURCES & CREDITS :

   NOAA